createdAt,value
2019-01-31T00:00:53.028Z,73.10
2019-01-31T00:03:47.318Z,73.00
2019-01-31T00:06:41.157Z,72.80
2019-01-31T00:09:51.854Z,71.40
2019-01-31T00:12:49.839Z,71.10
2019-01-31T00:15:36.326Z,71.40
2019-01-31T00:18:46.133Z,73.70
2019-01-31T00:22:02.547Z,74.00
2019-01-31T00:24:58.264Z,74.40
2019-01-31T00:27:57.086Z,75.00
2019-01-31T00:31:03.618Z,76.60
2019-01-31T00:34:04.697Z,74.70
2019-01-31T00:37:15.823Z,72.70
2019-01-31T00:40:26.720Z,71.80
2019-01-31T00:43:47.485Z,72.30
2019-01-31T00:47:25.398Z,72.20
2019-01-31T00:50:38.268Z,72.40
2019-01-31T00:53:46.542Z,73.60
2019-01-31T00:56:59.116Z,73.40
2019-01-31T01:00:02.940Z,72.90
2019-01-31T01:03:15.527Z,71.90
2019-01-31T01:06:46.848Z,71.90
2019-01-31T01:09:57.708Z,71.80
2019-01-31T01:13:03.101Z,72.20
2019-01-31T01:16:18.045Z,71.50
2019-01-31T01:19:22.652Z,71.80
2019-01-31T01:22:30.014Z,71.80
2019-01-31T01:25:54.985Z,71.20
2019-01-31T01:29:22.810Z,73.10
2019-01-31T01:33:02.457Z,72.20
2019-01-31T01:36:30.213Z,72.00
2019-01-31T01:39:33.212Z,73.20
2019-01-31T01:42:37.502Z,73.10
2019-01-31T01:45:54.684Z,72.70
2019-01-31T01:48:57.902Z,73.40
2019-01-31T01:52:17.092Z,70.80
2019-01-31T01:55:07.104Z,74.70
2019-01-31T01:58:21.195Z,72.50
2019-01-31T02:01:55.488Z,73.00
2019-01-31T02:05:15.465Z,74.60
2019-01-31T02:08:36.310Z,73.10
2019-01-31T02:12:02.060Z,72.80
2019-01-31T02:15:37.234Z,71.40
2019-01-31T02:18:45.028Z,72.50
2019-01-31T02:22:10.286Z,72.20
2019-01-31T02:25:05.993Z,71.60
2019-01-31T02:28:03.939Z,72.00
2019-01-31T02:31:10.116Z,72.20
2019-01-31T02:34:19.417Z,71.50
2019-01-31T02:37:15.779Z,70.90
2019-01-31T02:40:24.077Z,72.50
2019-01-31T02:43:15.754Z,72.70
2019-01-31T02:46:54.908Z,74.40
2019-01-31T02:49:55.712Z,75.20
2019-01-31T02:53:22.122Z,75.20
2019-01-31T02:56:22.257Z,71.10
2019-01-31T03:11:24.653Z,69.60
2019-01-31T03:14:54.974Z,68.80
2019-01-31T03:22:13.847Z,71.00
2019-01-31T03:25:27.508Z,68.50
2019-01-31T03:28:41.600Z,70.30
2019-01-31T03:31:56.848Z,69.40
2019-01-31T03:35:32.331Z,69.30
2019-01-31T03:38:46.324Z,70.20
2019-01-31T03:41:54.533Z,67.00
2019-01-31T03:44:58.757Z,67.30
2019-01-31T03:48:14.522Z,69.40
2019-01-31T03:51:36.526Z,68.90
2019-01-31T03:54:57.399Z,68.80
2019-01-31T03:58:26.182Z,68.80
2019-01-31T04:01:55.254Z,69.10
2019-01-31T04:05:07.531Z,69.30
2019-01-31T04:07:54.643Z,69.20
2019-01-31T04:10:33.394Z,69.10
2019-01-31T04:13:47.484Z,69.10
2019-01-31T04:17:03.210Z,69.00
2019-01-31T04:19:47.345Z,69.00
2019-01-31T04:23:28.996Z,69.10
2019-01-31T04:26:36.722Z,71.50
2019-01-31T04:30:02.758Z,69.00
2019-01-31T04:33:11.895Z,70.50
2019-01-31T04:55:11.611Z,72.00
2019-01-31T05:05:41.769Z,68.80
2019-01-31T05:08:45.673Z,68.70
2019-01-31T05:12:09.880Z,69.10
2019-01-31T05:18:36.233Z,71.90
2019-01-31T05:21:38.912Z,70.70
2019-01-31T05:24:54.456Z,68.50
2019-01-31T05:27:53.834Z,69.60
2019-01-31T05:47:09.549Z,70.90
2019-01-31T05:49:48.187Z,72.70
2019-01-31T05:52:26.517Z,68.80
2019-01-31T05:55:06.934Z,69.30
2019-01-31T05:57:50.186Z,69.80
2019-01-31T06:00:38.150Z,70.30
2019-01-31T06:03:17.652Z,71.00
2019-01-31T06:06:00.001Z,70.00
2019-01-31T06:08:41.450Z,69.20
2019-01-31T06:11:22.228Z,68.30
2019-01-31T06:14:02.544Z,67.40
2019-01-31T06:16:42.007Z,67.40
2019-01-31T06:19:24.173Z,67.20
2019-01-31T06:22:04.648Z,67.70
2019-01-31T06:24:47.093Z,68.00
2019-01-31T06:27:26.768Z,69.00
2019-01-31T06:30:06.445Z,67.90
2019-01-31T06:32:51.321Z,67.60
2019-01-31T06:35:33.609Z,67.90
2019-01-31T06:38:19.817Z,68.00
2019-01-31T06:41:01.421Z,68.50
2019-01-31T06:43:40.925Z,67.80
2019-01-31T06:46:26.316Z,67.70
2019-01-31T06:49:12.647Z,67.40
2019-01-31T06:51:51.856Z,69.30
2019-01-31T06:54:40.143Z,68.10
2019-01-31T06:57:20.557Z,67.60
2019-01-31T07:00:03.741Z,68.50
2019-01-31T07:02:45.628Z,67.70
2019-01-31T07:05:23.160Z,67.10
2019-01-31T07:08:04.711Z,67.60
2019-01-31T07:10:50.134Z,67.40
2019-01-31T07:13:29.521Z,67.30
2019-01-31T07:16:11.726Z,67.20
2019-01-31T07:18:57.415Z,67.20
2019-01-31T07:21:36.215Z,67.00
2019-01-31T07:24:20.719Z,67.60
2019-01-31T07:27:05.444Z,68.30
2019-01-31T07:29:54.186Z,68.40
2019-01-31T07:32:38.284Z,67.40
2019-01-31T07:35:22.680Z,66.70
2019-01-31T07:38:06.617Z,67.40
2019-01-31T07:40:48.739Z,67.30
2019-01-31T07:43:26.508Z,66.30
2019-01-31T07:46:11.761Z,65.80
2019-01-31T07:48:59.319Z,65.80
2019-01-31T07:51:43.694Z,65.90
2019-01-31T07:54:23.653Z,65.90
2019-01-31T07:57:08.183Z,66.50
2019-01-31T07:59:48.581Z,65.70
2019-01-31T08:02:35.211Z,65.20
2019-01-31T08:05:16.053Z,64.60
2019-01-31T08:07:57.969Z,64.70
2019-01-31T08:10:51.280Z,64.10
2019-01-31T08:13:30.087Z,64.40
2019-01-31T08:16:48.506Z,63.60
2019-01-31T08:19:32.836Z,63.50
2019-01-31T08:22:11.435Z,63.40
2019-01-31T08:33:10.866Z,66.10
2019-01-31T08:35:50.639Z,63.70
2019-01-31T08:38:31.233Z,63.70
2019-01-31T08:41:15.790Z,63.20
2019-01-31T08:43:54.612Z,63.50
2019-01-31T08:46:32.638Z,67.40
2019-01-31T08:49:12.419Z,66.10
2019-01-31T08:51:50.252Z,63.80
2019-01-31T08:54:33.299Z,63.80
2019-01-31T08:57:16.551Z,63.10
2019-01-31T08:59:55.815Z,62.00
2019-01-31T09:02:39.058Z,63.20
2019-01-31T09:05:20.432Z,65.10
2019-01-31T09:08:21.159Z,62.40
2019-01-31T09:11:02.696Z,62.20
2019-01-31T09:13:42.758Z,61.40
2019-01-31T09:16:24.448Z,61.00
2019-01-31T09:19:08.290Z,61.70
2019-01-31T09:22:05.115Z,62.80
2019-01-31T09:25:27.126Z,61.40
2019-01-31T09:28:52.115Z,61.50
2019-01-31T09:32:07.163Z,62.10
2019-01-31T09:35:05.455Z,62.20
2019-01-31T09:38:24.340Z,62.30
2019-01-31T09:41:31.418Z,62.00
2019-01-31T09:44:41.435Z,63.20
2019-01-31T09:47:57.203Z,63.10
2019-01-31T09:51:23.611Z,64.10
2019-01-31T09:54:13.780Z,63.20
2019-01-31T09:57:43.466Z,62.80
2019-01-31T10:00:56.382Z,62.70
2019-01-31T10:04:22.205Z,64.60
2019-01-31T10:07:34.188Z,63.30
2019-01-31T10:11:08.290Z,65.30
2019-01-31T10:14:33.967Z,64.60
2019-01-31T10:17:44.372Z,63.50
2019-01-31T10:21:07.330Z,64.80
2019-01-31T10:23:55.531Z,63.40
2019-01-31T10:27:09.464Z,63.60
2019-01-31T10:30:14.949Z,64.10
2019-01-31T10:33:20.937Z,65.40
2019-01-31T10:36:27.027Z,65.50
2019-01-31T10:39:25.883Z,65.30
2019-01-31T10:42:31.982Z,64.20
2019-01-31T10:45:42.297Z,64.20
2019-01-31T10:48:50.077Z,63.50
2019-01-31T10:52:01.136Z,63.60
2019-01-31T10:55:27.674Z,63.70
2019-01-31T10:58:57.807Z,63.70
2019-01-31T11:02:32.274Z,65.10
2019-01-31T11:05:42.146Z,64.80
2019-01-31T11:08:41.805Z,64.20
2019-01-31T11:12:03.454Z,64.40
2019-01-31T11:15:00.351Z,64.20
2019-01-31T11:17:59.477Z,64.10
2019-01-31T11:21:11.511Z,64.00
2019-01-31T11:24:20.295Z,63.20
2019-01-31T11:28:05.441Z,63.70
2019-01-31T11:31:37.852Z,64.30
2019-01-31T11:34:41.304Z,64.00
2019-01-31T11:37:51.530Z,64.40
2019-01-31T11:40:57.289Z,63.90
2019-01-31T11:44:23.108Z,63.70
2019-01-31T11:47:39.586Z,63.90
2019-01-31T11:50:48.427Z,62.00
2019-01-31T11:54:05.781Z,63.00
2019-01-31T11:57:11.934Z,62.80
2019-01-31T12:00:00.173Z,62.20
2019-01-31T12:02:55.073Z,60.70
2019-01-31T12:12:19.424Z,60.30
2019-01-31T12:15:03.691Z,61.40
2019-01-31T12:17:42.194Z,60.20
2019-01-31T12:20:25.149Z,60.40
2019-01-31T12:23:24.721Z,62.20
2019-01-31T12:26:20.217Z,61.10
2019-01-31T12:29:00.974Z,60.00
2019-01-31T12:31:49.126Z,59.90
2019-01-31T12:34:44.447Z,60.20
2019-01-31T12:37:24.257Z,62.60
2019-01-31T12:40:11.466Z,60.30
2019-01-31T12:42:51.385Z,60.90
2019-01-31T12:45:32.595Z,62.10
2019-01-31T12:48:27.289Z,62.60
2019-01-31T12:51:07.234Z,62.10
2019-01-31T12:54:00.391Z,62.80
2019-01-31T12:56:46.145Z,60.90
2019-01-31T12:59:46.930Z,59.20
2019-01-31T13:02:39.946Z,64.40
2019-01-31T13:05:24.882Z,59.50
2019-01-31T13:08:29.425Z,59.50
2019-01-31T13:11:34.211Z,59.60
2019-01-31T13:14:37.366Z,59.80
2019-01-31T13:17:24.226Z,59.20
2019-01-31T13:20:07.211Z,59.30
2019-01-31T13:22:51.431Z,59.40
2019-01-31T13:25:48.713Z,60.50
2019-01-31T13:28:39.044Z,61.60
2019-01-31T13:31:18.625Z,62.10
2019-01-31T13:33:58.453Z,62.10
2019-01-31T13:36:45.375Z,62.00
2019-01-31T13:39:31.562Z,62.20
2019-01-31T13:42:16.350Z,63.80
2019-01-31T13:44:58.592Z,61.20
2019-01-31T13:47:41.368Z,61.50
2019-01-31T13:50:43.637Z,61.40
2019-01-31T13:53:27.999Z,60.90
2019-01-31T13:56:21.044Z,60.10
2019-01-31T13:59:49.659Z,60.00
2019-01-31T14:03:10.339Z,60.20
2019-01-31T14:07:04.818Z,60.10
2019-01-31T14:10:01.944Z,60.30
2019-01-31T14:13:06.621Z,60.80
2019-01-31T14:19:40.926Z,61.40
2019-01-31T14:22:55.741Z,61.40
2019-01-31T14:25:42.155Z,62.00
2019-01-31T14:28:29.548Z,62.30
2019-01-31T14:31:20.633Z,62.30
2019-01-31T14:34:06.261Z,62.30
2019-01-31T14:37:14.806Z,62.50
2019-01-31T14:40:32.164Z,62.70
2019-01-31T14:43:40.691Z,62.30
2019-01-31T14:46:34.937Z,62.30
2019-01-31T14:49:32.092Z,62.10
2019-01-31T14:52:34.026Z,62.20
2019-01-31T14:55:31.423Z,61.90
2019-01-31T14:58:59.255Z,61.90
2019-01-31T15:01:51.053Z,61.60
2019-01-31T15:04:57.154Z,61.60
2019-01-31T15:08:00.270Z,62.00
2019-01-31T15:11:00.336Z,61.50
2019-01-31T15:13:45.640Z,61.30
2019-01-31T15:16:29.484Z,60.90
2019-01-31T15:19:17.312Z,61.10
2019-01-31T15:22:29.210Z,61.20
2019-01-31T15:25:13.991Z,60.80
2019-01-31T15:31:33.481Z,61.10
2019-01-31T15:34:25.748Z,60.80
2019-01-31T15:37:23.952Z,60.70
2019-01-31T15:43:45.940Z,61.00
2019-01-31T15:46:40.280Z,60.70
2019-01-31T15:49:43.854Z,60.40
2019-01-31T15:52:49.422Z,60.00
2019-01-31T15:55:39.515Z,60.20
2019-01-31T15:58:32.533Z,60.50
2019-01-31T16:01:19.783Z,60.80
2019-01-31T16:04:23.818Z,60.60
2019-01-31T16:07:03.333Z,60.80
2019-01-31T16:09:50.841Z,61.10
2019-01-31T16:12:46.957Z,61.50
2019-01-31T16:15:52.504Z,61.00
2019-01-31T16:18:35.057Z,61.00
2019-01-31T16:21:34.354Z,60.70
2019-01-31T16:24:28.066Z,60.50
2019-01-31T16:27:28.583Z,60.50
2019-01-31T16:30:42.572Z,60.90
2019-01-31T16:33:35.588Z,61.20
2019-01-31T16:36:43.225Z,61.00
2019-01-31T16:39:29.439Z,61.00
2019-01-31T16:42:14.752Z,60.70
2019-01-31T16:45:26.139Z,60.80
2019-01-31T16:48:33.410Z,61.50
2019-01-31T16:51:21.475Z,60.60
2019-01-31T16:54:02.990Z,60.50
2019-01-31T16:56:49.798Z,60.40
2019-01-31T16:59:56.103Z,60.40
2019-01-31T17:02:49.516Z,60.40
2019-01-31T17:05:37.151Z,61.40
2019-01-31T17:08:25.098Z,61.00
2019-01-31T17:11:08.286Z,60.90
2019-01-31T17:13:56.638Z,60.80
2019-01-31T17:16:48.047Z,60.90
2019-01-31T17:19:34.409Z,60.70
2019-01-31T17:22:16.954Z,60.50
2019-01-31T17:25:02.097Z,60.80
2019-01-31T17:27:44.529Z,61.10
2019-01-31T17:30:33.755Z,61.10
2019-01-31T17:33:15.082Z,60.90
2019-01-31T17:35:56.254Z,61.20
2019-01-31T17:38:34.707Z,61.00
2019-01-31T17:41:12.600Z,60.50
2019-01-31T17:43:53.559Z,60.00
2019-01-31T17:46:32.090Z,59.90
2019-01-31T17:49:10.504Z,60.10
2019-01-31T17:51:53.550Z,60.10
2019-01-31T17:54:32.897Z,60.20
2019-01-31T17:57:10.839Z,60.70
2019-01-31T17:59:48.625Z,60.50
2019-01-31T18:02:25.819Z,60.70
2019-01-31T18:05:03.471Z,60.90
2019-01-31T18:07:41.525Z,61.10
2019-01-31T18:10:26.186Z,60.50
2019-01-31T18:13:06.627Z,60.70
2019-01-31T18:15:45.005Z,60.20
2019-01-31T18:18:28.730Z,60.50
2019-01-31T18:21:05.605Z,60.70
2019-01-31T18:23:48.539Z,60.10
2019-01-31T18:26:25.224Z,60.70
2019-01-31T18:29:06.959Z,60.40
2019-01-31T18:31:47.346Z,60.70
2019-01-31T18:34:25.124Z,61.20
2019-01-31T18:37:05.175Z,61.80
2019-01-31T18:39:42.297Z,61.10
2019-01-31T18:42:22.989Z,61.10
2019-01-31T18:45:02.261Z,61.20
2019-01-31T18:47:43.397Z,61.40
2019-01-31T18:50:25.796Z,61.40
2019-01-31T18:53:09.900Z,62.40
2019-01-31T18:55:47.079Z,61.70
2019-01-31T18:58:26.840Z,61.70
2019-01-31T19:01:06.035Z,61.50
2019-01-31T19:03:44.709Z,61.70
2019-01-31T19:06:22.102Z,61.80
2019-01-31T19:08:59.663Z,62.00
2019-01-31T19:11:36.451Z,62.20
2019-01-31T19:14:14.452Z,62.40
2019-01-31T19:16:51.679Z,62.50
2019-01-31T19:19:32.271Z,62.70
2019-01-31T19:22:11.783Z,62.70
2019-01-31T19:24:55.680Z,63.20
2019-01-31T19:27:36.511Z,63.30
2019-01-31T19:30:23.591Z,63.20
2019-01-31T19:33:02.212Z,63.40
2019-01-31T19:35:39.535Z,63.40
2019-01-31T19:38:17.220Z,63.60
2019-01-31T19:40:54.836Z,63.70
2019-01-31T19:43:33.749Z,64.00
2019-01-31T19:46:16.673Z,64.00
2019-01-31T19:48:50.618Z,63.90
2019-01-31T19:51:29.240Z,63.60
2019-01-31T19:54:06.736Z,63.80
2019-01-31T19:56:50.615Z,64.00
2019-01-31T19:59:28.103Z,64.00
2019-01-31T20:02:06.016Z,64.20
2019-01-31T20:04:44.984Z,63.90
2019-01-31T20:07:21.954Z,64.00
2019-01-31T20:09:58.958Z,64.10
2019-01-31T20:12:38.178Z,64.30
2019-01-31T20:15:16.175Z,64.50
2019-01-31T20:17:53.297Z,65.40
2019-01-31T20:20:31.885Z,64.50
2019-01-31T20:23:11.072Z,64.70
2019-01-31T20:25:49.975Z,64.70
2019-01-31T20:28:27.176Z,64.80
2019-01-31T20:31:04.665Z,64.90
2019-01-31T20:33:43.929Z,64.80
2019-01-31T20:36:21.606Z,64.70
2019-01-31T20:38:59.281Z,64.80
2019-01-31T20:41:37.189Z,64.80
2019-01-31T20:44:15.619Z,64.60
2019-01-31T20:46:54.485Z,65.00
2019-01-31T20:49:32.973Z,64.70
2019-01-31T20:52:11.067Z,64.90
2019-01-31T20:54:47.817Z,65.10
2019-01-31T20:57:25.031Z,65.50
2019-01-31T21:00:03.052Z,65.40
2019-01-31T21:02:42.636Z,65.30
2019-01-31T21:05:21.684Z,65.30
2019-01-31T21:07:59.172Z,65.10
2019-01-31T21:10:37.060Z,65.00
2019-01-31T21:13:14.773Z,65.20
2019-01-31T21:15:53.057Z,65.40
2019-01-31T21:18:30.774Z,65.00
2019-01-31T21:21:08.255Z,65.40
2019-01-31T21:23:46.833Z,65.50
2019-01-31T21:26:24.822Z,65.30
2019-01-31T21:29:02.445Z,65.20
2019-01-31T21:31:39.746Z,65.30
2019-01-31T21:34:18.761Z,65.30
2019-01-31T21:36:55.953Z,65.10
2019-01-31T21:39:33.777Z,64.80
2019-01-31T21:42:10.604Z,65.00
2019-01-31T21:44:49.099Z,65.20
2019-01-31T21:47:26.142Z,65.50
2019-01-31T21:50:03.616Z,65.50
2019-01-31T21:52:43.790Z,65.60
2019-01-31T21:55:21.867Z,65.40
2019-01-31T21:57:59.000Z,65.30
2019-01-31T22:00:37.730Z,65.30
2019-01-31T22:03:15.724Z,65.20
2019-01-31T22:05:52.861Z,65.20
2019-01-31T22:08:29.724Z,65.50
2019-01-31T22:11:07.124Z,65.60
2019-01-31T22:13:44.826Z,65.80
2019-01-31T22:16:22.481Z,66.10
2019-01-31T22:19:00.772Z,66.30
2019-01-31T22:21:38.085Z,66.60
2019-01-31T22:24:15.609Z,66.80
2019-01-31T22:26:52.428Z,66.60
2019-01-31T22:29:29.923Z,66.40
2019-01-31T22:32:22.440Z,66.40
2019-01-31T22:35:12.606Z,66.70
2019-01-31T22:38:01.484Z,66.90
2019-01-31T22:40:44.731Z,66.90
2019-01-31T22:43:32.426Z,66.90
2019-01-31T22:46:15.439Z,67.10
2019-01-31T22:49:10.536Z,67.20
2019-01-31T22:51:51.240Z,66.90
2019-01-31T22:54:29.110Z,66.80
2019-01-31T22:57:12.651Z,66.70
2019-01-31T23:00:14.776Z,67.00
2019-01-31T23:03:21.145Z,67.10
2019-01-31T23:06:13.225Z,67.20
2019-01-31T23:09:16.512Z,67.50
2019-01-31T23:11:57.639Z,67.40
2019-01-31T23:14:46.896Z,67.50
2019-01-31T23:17:24.589Z,67.70
2019-01-31T23:20:01.555Z,67.70
2019-01-31T23:22:38.954Z,67.70
2019-01-31T23:25:17.252Z,68.40
2019-01-31T23:27:54.509Z,67.30
2019-01-31T23:30:31.656Z,67.00
2019-01-31T23:33:10.133Z,67.70
2019-01-31T23:35:50.280Z,68.00
2019-01-31T23:38:29.225Z,68.80
2019-01-31T23:41:07.259Z,68.40
2019-01-31T23:43:45.783Z,68.70
2019-01-31T23:46:23.174Z,68.40
2019-01-31T23:49:11.484Z,69.50
2019-01-31T23:52:08.162Z,69.10
2019-01-31T23:54:46.175Z,69.00
2019-01-31T23:57:24.084Z,70.50
